createdAt,value
2017-03-26T00:00:47.651Z,99.99
2017-03-26T00:01:56.758Z,99.99
2017-03-26T00:03:05.975Z,99.99
2017-03-26T00:04:14.867Z,99.99
2017-03-26T00:05:24.084Z,99.99
2017-03-26T00:06:32.974Z,99.99
2017-03-26T00:07:43.627Z,99.99
2017-03-26T00:08:52.206Z,99.99
2017-03-26T00:10:00.778Z,99.99
2017-03-26T00:11:09.666Z,99.99
2017-03-26T00:12:18.492Z,99.99
2017-03-26T00:13:59.123Z,99.99
2017-03-26T00:15:07.699Z,99.99
2017-03-26T00:16:16.270Z,99.99
2017-03-26T00:17:25.156Z,99.99
2017-03-26T00:18:34.043Z,99.99
2017-03-26T00:19:42.928Z,99.99
2017-03-26T00:20:51.814Z,99.99
2017-03-26T00:22:00.398Z,99.99
2017-03-26T00:23:09.695Z,99.99
2017-03-26T00:24:18.608Z,99.99
2017-03-26T00:25:27.177Z,99.99
2017-03-26T00:26:36.064Z,99.99
2017-03-26T00:27:44.953Z,99.99
2017-03-26T00:28:53.731Z,99.99
2017-03-26T00:30:02.993Z,99.99
2017-03-26T00:31:12.509Z,99.99
2017-03-26T00:32:21.075Z,99.99
2017-03-26T00:33:29.673Z,99.99
2017-03-26T00:34:38.661Z,99.99
2017-03-26T00:35:47.593Z,99.99
2017-03-26T00:36:56.474Z,99.99
2017-03-26T00:38:05.042Z,99.99
2017-03-26T00:39:13.613Z,99.99
2017-03-26T00:40:22.505Z,99.99
2017-03-26T00:41:32.023Z,99.99
2017-03-26T00:42:40.910Z,99.99
2017-03-26T00:43:49.805Z,99.99
2017-03-26T00:44:58.380Z,99.99
2017-03-26T00:46:07.260Z,99.99
2017-03-26T00:47:16.149Z,99.99
2017-03-26T00:48:25.056Z,99.99
2017-03-26T00:49:34.283Z,99.99
2017-03-26T00:50:42.864Z,99.99
2017-03-26T00:51:51.759Z,99.99
2017-03-26T00:53:00.982Z,99.99
2017-03-26T00:54:10.208Z,99.99
2017-03-26T00:55:19.118Z,99.99
2017-03-26T00:56:28.375Z,99.99
2017-03-26T00:57:37.589Z,99.99
2017-03-26T00:58:46.490Z,99.99
2017-03-26T00:59:55.705Z,99.99
2017-03-26T01:01:04.607Z,99.99
2017-03-26T01:02:13.818Z,99.99
2017-03-26T01:03:22.719Z,99.99
2017-03-26T01:04:31.645Z,99.99
2017-03-26T01:05:40.219Z,99.99
2017-03-26T01:06:49.433Z,99.99
2017-03-26T01:07:58.966Z,99.99
2017-03-26T01:09:08.177Z,99.99
2017-03-26T01:10:17.178Z,99.99
2017-03-26T01:11:26.157Z,99.99
2017-03-26T01:12:35.060Z,99.99
2017-03-26T01:13:44.279Z,99.99
2017-03-26T01:14:53.499Z,99.99
2017-03-26T01:16:02.079Z,99.99
2017-03-26T01:17:11.300Z,99.99
2017-03-26T01:18:20.206Z,99.99
2017-03-26T01:19:29.114Z,99.99
2017-03-26T01:20:38.022Z,99.99
2017-03-26T01:21:46.921Z,99.99
2017-03-26T01:22:56.136Z,99.99
2017-03-26T01:24:05.038Z,99.99
2017-03-26T01:25:13.623Z,99.99
2017-03-26T01:26:22.244Z,99.99
2017-03-26T01:27:31.629Z,99.99
2017-03-26T01:28:40.529Z,99.99
2017-03-26T01:29:49.115Z,99.99
2017-03-26T01:30:58.663Z,99.99
2017-03-26T01:32:07.556Z,99.99
2017-03-26T01:33:16.532Z,99.99
2017-03-26T01:34:25.480Z,99.99
2017-03-26T01:35:35.010Z,99.99
2017-03-26T01:36:44.222Z,99.99
2017-03-26T01:37:53.118Z,99.99
2017-03-26T01:39:02.659Z,99.99
2017-03-26T01:40:11.244Z,99.99
2017-03-26T01:41:20.141Z,99.99
2017-03-26T01:42:29.363Z,99.99
2017-03-26T01:43:38.264Z,99.99
2017-03-26T01:44:48.114Z,99.99
2017-03-26T01:45:57.331Z,99.99
2017-03-26T01:47:05.912Z,99.99
2017-03-26T01:48:15.445Z,99.99
2017-03-26T01:49:24.711Z,99.99
2017-03-26T01:50:33.615Z,99.99
2017-03-26T01:51:43.147Z,99.99
2017-03-26T01:52:52.691Z,99.99
2017-03-26T01:54:01.906Z,99.99
2017-03-26T01:55:10.810Z,99.99
2017-03-26T01:56:19.705Z,99.99
2017-03-26T01:57:28.600Z,99.99
2017-03-26T01:58:37.499Z,99.99
2017-03-26T01:59:46.718Z,99.99
2017-03-26T02:00:55.303Z,99.99
2017-03-26T02:02:04.838Z,99.99
2017-03-26T02:03:14.372Z,99.99
2017-03-26T02:04:24.228Z,99.99
2017-03-26T02:05:33.129Z,99.99
2017-03-26T02:06:42.347Z,99.99
2017-03-26T02:07:51.561Z,99.99
2017-03-26T02:09:00.461Z,99.99
2017-03-26T02:10:10.006Z,99.99
2017-03-26T02:11:18.906Z,99.99
2017-03-26T02:12:28.114Z,99.99
2017-03-26T02:13:37.541Z,99.99
2017-03-26T02:14:46.442Z,99.99
2017-03-26T02:15:55.661Z,99.99
2017-03-26T02:17:04.878Z,99.99
2017-03-26T02:18:14.412Z,99.99
2017-03-26T02:19:23.952Z,99.99
2017-03-26T02:20:32.870Z,99.99
2017-03-26T02:21:41.880Z,99.99
2017-03-26T02:22:50.785Z,99.99
2017-03-26T02:23:59.733Z,99.99
2017-03-26T02:25:09.473Z,99.99
2017-03-26T02:26:19.067Z,99.99
2017-03-26T02:27:28.013Z,99.99
2017-03-26T02:28:37.981Z,99.99
2017-03-26T02:29:47.649Z,99.99
2017-03-26T02:30:56.417Z,99.99
2017-03-26T02:32:05.505Z,99.99
2017-03-26T02:33:15.355Z,99.99
2017-03-26T02:34:24.688Z,99.99
2017-03-26T02:35:33.739Z,99.99
2017-03-26T02:36:43.487Z,99.99
2017-03-26T02:37:53.469Z,99.99
2017-03-26T02:39:03.124Z,99.99
2017-03-26T02:40:12.481Z,99.99
2017-03-26T02:41:22.252Z,99.99
2017-03-26T02:42:32.202Z,99.99
2017-03-26T02:43:41.156Z,99.99
2017-03-26T02:44:50.361Z,99.99
2017-03-26T02:45:59.678Z,99.99
2017-03-26T02:47:09.356Z,99.99
2017-03-26T02:48:18.764Z,99.99
2017-03-26T02:49:28.428Z,99.99
2017-03-26T02:50:38.110Z,99.99
2017-03-26T02:51:47.879Z,99.99
2017-03-26T02:52:57.440Z,99.99
2017-03-26T02:54:06.955Z,99.99
2017-03-26T02:55:17.004Z,99.99
2017-03-26T02:56:26.399Z,99.99
2017-03-26T02:57:35.478Z,99.99
2017-03-26T02:58:44.404Z,99.99
2017-03-26T02:59:53.896Z,99.99
2017-03-26T03:01:02.796Z,99.99
2017-03-26T03:02:12.012Z,99.99
2017-03-26T03:03:21.553Z,99.99
2017-03-26T03:04:30.454Z,99.99
2017-03-26T03:05:39.819Z,99.99
2017-03-26T03:06:49.235Z,99.99
2017-03-26T03:07:59.085Z,99.99
2017-03-26T03:09:07.984Z,99.99
2017-03-26T03:10:17.198Z,99.99
2017-03-26T03:11:26.731Z,99.99
2017-03-26T03:12:35.628Z,99.99
2017-03-26T03:13:45.235Z,99.99
2017-03-26T03:14:54.499Z,99.99
2017-03-26T03:16:03.721Z,99.99
2017-03-26T03:17:13.257Z,99.99
2017-03-26T03:18:22.157Z,99.99
2017-03-26T03:19:31.377Z,99.99
2017-03-26T03:20:40.272Z,99.99
2017-03-26T03:21:49.857Z,99.99
2017-03-26T03:22:59.069Z,99.99
2017-03-26T03:24:08.289Z,99.99
2017-03-26T03:25:17.509Z,99.99
2017-03-26T03:26:26.724Z,99.99
2017-03-26T03:27:36.574Z,99.99
2017-03-26T03:28:45.179Z,99.99
2017-03-26T03:29:54.078Z,99.99
2017-03-26T03:31:02.977Z,99.99
2017-03-26T03:32:12.189Z,99.99
2017-03-26T03:33:21.722Z,99.99
2017-03-26T03:34:30.630Z,99.99
2017-03-26T03:35:40.163Z,99.99
2017-03-26T03:36:48.743Z,99.99
2017-03-26T03:37:58.286Z,99.99
2017-03-26T03:39:07.508Z,99.99
2017-03-26T03:40:16.725Z,99.99
2017-03-26T03:41:25.704Z,99.99
2017-03-26T03:42:35.033Z,99.99
2017-03-26T03:43:44.572Z,99.99
2017-03-26T03:44:53.472Z,99.99
2017-03-26T03:46:02.360Z,99.99
2017-03-26T03:47:11.253Z,99.99
2017-03-26T03:48:20.467Z,99.99
2017-03-26T03:49:29.368Z,99.99
2017-03-26T03:50:38.930Z,99.99
2017-03-26T03:51:48.088Z,99.99
2017-03-26T03:52:57.671Z,99.99
2017-03-26T03:54:07.286Z,99.99
2017-03-26T03:55:17.105Z,99.99
2017-03-26T03:56:27.066Z,99.99
2017-03-26T03:57:36.689Z,99.99
2017-03-26T03:58:46.352Z,99.99
2017-03-26T03:59:56.373Z,99.99
2017-03-26T04:01:05.974Z,99.99
2017-03-26T04:02:14.980Z,99.99
2017-03-26T04:03:23.816Z,99.99
2017-03-26T04:04:33.035Z,99.99
2017-03-26T04:05:42.622Z,99.99
2017-03-26T04:06:51.858Z,99.99
2017-03-26T04:08:01.385Z,99.99
2017-03-26T04:09:10.416Z,99.99
2017-03-26T04:10:20.096Z,99.99
2017-03-26T04:11:29.780Z,99.99
2017-03-26T04:12:38.415Z,99.99
2017-03-26T04:13:47.633Z,99.99
2017-03-26T04:14:56.216Z,99.99
2017-03-26T04:16:05.754Z,99.99
2017-03-26T04:17:14.965Z,99.99
2017-03-26T04:18:23.547Z,99.99
2017-03-26T04:19:32.463Z,99.99
2017-03-26T04:20:41.674Z,99.99
2017-03-26T04:21:50.246Z,99.99
2017-03-26T04:22:59.147Z,99.99
2017-03-26T04:24:08.364Z,99.99
2017-03-26T04:25:17.275Z,99.99
2017-03-26T04:26:26.808Z,99.99
2017-03-26T04:27:36.018Z,99.99
2017-03-26T04:28:44.919Z,99.99
2017-03-26T04:29:53.835Z,99.99
2017-03-26T04:31:03.368Z,99.99
2017-03-26T04:32:12.265Z,99.99
2017-03-26T04:33:20.845Z,99.99
2017-03-26T04:34:30.063Z,99.99
2017-03-26T04:35:39.280Z,99.99
2017-03-26T04:36:48.185Z,99.99
2017-03-26T04:37:58.029Z,99.99
2017-03-26T04:39:07.029Z,99.99
2017-03-26T04:40:16.246Z,99.99
2017-03-26T04:41:24.826Z,99.99
2017-03-26T04:42:34.357Z,99.99
2017-03-26T04:43:42.939Z,99.99
2017-03-26T04:44:51.847Z,99.99
2017-03-26T04:46:01.155Z,99.99
2017-03-26T04:47:10.822Z,99.99
2017-03-26T04:48:20.074Z,99.99
2017-03-26T04:49:29.297Z,99.99
2017-03-26T04:50:37.883Z,99.99
2017-03-26T04:51:47.094Z,99.99
2017-03-26T04:52:55.986Z,99.99
2017-03-26T04:54:05.841Z,99.99
2017-03-26T04:55:15.378Z,99.99
2017-03-26T04:56:24.271Z,99.99
2017-03-26T04:57:33.481Z,99.99
2017-03-26T04:58:42.699Z,99.99
2017-03-26T04:59:52.243Z,99.99
2017-03-26T05:01:01.150Z,99.99
2017-03-26T05:02:10.360Z,99.99
2017-03-26T05:03:19.900Z,99.99
2017-03-26T05:04:29.441Z,99.99
2017-03-26T05:05:38.332Z,99.99
2017-03-26T05:06:47.542Z,99.99
2017-03-26T05:07:57.074Z,99.99
2017-03-26T05:09:06.610Z,99.99
2017-03-26T05:10:15.505Z,99.99
2017-03-26T05:11:24.403Z,99.99
2017-03-26T05:12:34.251Z,99.99
2017-03-26T05:13:44.043Z,99.99
2017-03-26T05:14:52.952Z,99.99
2017-03-26T05:16:02.174Z,99.99
2017-03-26T05:17:11.729Z,99.99
2017-03-26T05:18:20.692Z,99.99
2017-03-26T05:19:30.234Z,99.99
2017-03-26T05:20:39.449Z,99.99
2017-03-26T05:21:49.325Z,99.99
2017-03-26T05:22:58.226Z,99.99
2017-03-26T05:24:07.777Z,99.99
2017-03-26T05:25:17.333Z,99.99
2017-03-26T05:26:26.864Z,99.99
2017-03-26T05:27:36.081Z,99.99
2017-03-26T05:28:45.304Z,99.99
2017-03-26T05:29:54.215Z,99.99
2017-03-26T05:31:03.754Z,99.99
2017-03-26T05:32:12.649Z,99.99
2017-03-26T05:33:21.547Z,99.99
2017-03-26T05:34:30.447Z,99.99
2017-03-26T05:35:39.973Z,99.99
2017-03-26T05:36:49.184Z,99.99
2017-03-26T05:37:58.085Z,99.99
2017-03-26T05:39:06.985Z,99.99
2017-03-26T05:40:15.882Z,99.99
2017-03-26T05:41:24.781Z,99.99
2017-03-26T05:42:33.993Z,99.99
2017-03-26T05:43:43.846Z,99.99
2017-03-26T05:44:53.067Z,99.99
2017-03-26T05:46:02.292Z,99.99
2017-03-26T05:47:11.509Z,99.99
2017-03-26T05:48:21.040Z,99.99
2017-03-26T05:49:29.943Z,99.99
2017-03-26T05:50:38.845Z,99.99
2017-03-26T05:51:47.741Z,99.99
2017-03-26T05:52:56.644Z,99.99
2017-03-26T05:54:05.860Z,99.99
2017-03-26T05:55:15.395Z,99.99
2017-03-26T05:56:23.974Z,99.99
2017-03-26T05:57:33.183Z,99.99
2017-03-26T05:58:42.758Z,99.99
2017-03-26T05:59:51.662Z,99.99
2017-03-26T06:01:01.123Z,99.99
2017-03-26T06:02:10.017Z,99.99
2017-03-26T06:03:18.604Z,99.99
2017-03-26T06:04:27.189Z,99.99
2017-03-26T06:05:36.088Z,99.99
2017-03-26T06:06:44.990Z,99.99
2017-03-26T06:07:53.566Z,99.99
2017-03-26T06:09:02.471Z,99.99
2017-03-26T06:10:12.007Z,99.99
2017-03-26T06:11:21.230Z,99.99
2017-03-26T06:12:31.078Z,99.99
2017-03-26T06:13:39.977Z,99.99
2017-03-26T06:14:48.880Z,99.99
2017-03-26T06:15:58.097Z,99.99
2017-03-26T06:17:07.310Z,99.99
2017-03-26T06:18:16.526Z,99.99
2017-03-26T06:19:25.424Z,99.99
2017-03-26T06:20:34.320Z,99.99
2017-03-26T06:21:43.469Z,99.99
2017-03-26T06:22:53.005Z,99.99
2017-03-26T06:24:02.219Z,99.99
2017-03-26T06:25:11.441Z,99.99
2017-03-26T06:26:20.649Z,99.99
2017-03-26T06:27:30.186Z,99.99
2017-03-26T06:28:39.401Z,99.99
2017-03-26T06:29:48.933Z,99.99
2017-03-26T06:30:58.150Z,99.99
2017-03-26T06:32:07.293Z,99.99
2017-03-26T06:33:16.829Z,99.99
2017-03-26T06:34:25.738Z,99.99
2017-03-26T06:35:34.320Z,99.99
2017-03-26T06:36:43.534Z,99.99
2017-03-26T06:37:52.428Z,99.99
2017-03-26T06:39:01.333Z,99.99
2017-03-26T06:40:10.554Z,99.99
2017-03-26T06:41:20.080Z,99.99
2017-03-26T06:42:28.975Z,99.99
2017-03-26T06:43:37.873Z,99.99
2017-03-26T06:44:47.092Z,99.99
2017-03-26T06:45:55.987Z,99.99
2017-03-26T06:47:05.202Z,99.99
2017-03-26T06:48:14.105Z,99.99
2017-03-26T06:49:23.655Z,99.99
2017-03-26T06:50:32.874Z,99.99
2017-03-26T06:51:42.090Z,99.99
2017-03-26T06:52:50.983Z,99.99
2017-03-26T06:54:00.839Z,99.99
2017-03-26T06:55:09.742Z,99.99
2017-03-26T06:56:19.278Z,99.99
2017-03-26T06:57:27.858Z,99.99
2017-03-26T06:58:36.444Z,99.99
2017-03-26T06:59:45.669Z,99.99
2017-03-26T07:00:55.199Z,99.99
2017-03-26T07:02:04.729Z,99.99
2017-03-26T07:03:14.256Z,99.99
2017-03-26T07:04:23.471Z,99.99
2017-03-26T07:05:32.690Z,99.99
2017-03-26T07:06:42.224Z,99.99
2017-03-26T07:07:51.126Z,99.99
2017-03-26T07:09:00.026Z,99.99
2017-03-26T07:10:09.244Z,99.99
2017-03-26T07:11:19.092Z,99.99
2017-03-26T07:12:28.306Z,99.99
2017-03-26T07:13:37.777Z,99.99
2017-03-26T07:14:46.996Z,99.99
2017-03-26T07:15:56.216Z,99.99
2017-03-26T07:17:06.087Z,99.99
2017-03-26T07:18:14.989Z,99.99
2017-03-26T07:19:23.890Z,99.99
2017-03-26T07:20:33.109Z,99.99
2017-03-26T07:21:42.635Z,99.99
2017-03-26T07:22:51.214Z,99.99
2017-03-26T07:24:00.460Z,99.99
2017-03-26T07:25:09.677Z,99.99
2017-03-26T07:26:18.892Z,99.99
2017-03-26T07:27:27.793Z,99.99
2017-03-26T07:28:36.691Z,99.99
2017-03-26T07:29:45.271Z,99.99
2017-03-26T07:30:53.863Z,99.99
2017-03-26T07:32:02.445Z,99.99
2017-03-26T07:33:11.979Z,99.99
2017-03-26T07:34:21.197Z,99.99
2017-03-26T07:35:30.094Z,99.99
2017-03-26T07:36:38.679Z,99.99
2017-03-26T07:37:47.579Z,99.99
2017-03-26T07:38:56.480Z,99.99
2017-03-26T07:40:05.699Z,99.99
2017-03-26T07:41:15.232Z,99.99
2017-03-26T07:42:23.812Z,99.99
2017-03-26T07:43:33.667Z,99.99
2017-03-26T07:44:42.572Z,99.99
2017-03-26T07:45:51.481Z,99.99
2017-03-26T07:47:00.715Z,99.99
2017-03-26T07:48:09.614Z,99.99
2017-03-26T07:49:18.829Z,99.99
2017-03-26T07:50:27.766Z,99.99
2017-03-26T07:51:36.669Z,99.99
2017-03-26T07:52:45.886Z,99.99
2017-03-26T07:53:54.787Z,99.99
2017-03-26T07:55:03.367Z,99.99
2017-03-26T07:56:12.590Z,99.99
2017-03-26T07:57:21.173Z,99.99
2017-03-26T07:58:30.072Z,99.99
2017-03-26T07:59:38.979Z,99.99
2017-03-26T08:00:47.882Z,99.99
2017-03-26T08:01:56.781Z,99.99
2017-03-26T08:03:05.362Z,99.99
2017-03-26T08:04:14.267Z,99.99
2017-03-26T08:05:23.487Z,99.99
2017-03-26T08:06:33.020Z,99.99
2017-03-26T08:07:41.919Z,99.99
2017-03-26T08:08:51.459Z,99.99
2017-03-26T08:10:00.046Z,99.99
2017-03-26T08:11:09.270Z,99.99
2017-03-26T08:12:18.485Z,99.99
2017-03-26T08:13:27.074Z,99.99
2017-03-26T08:14:35.657Z,99.99
2017-03-26T08:15:44.802Z,99.99
2017-03-26T08:16:54.024Z,99.99
2017-03-26T08:18:03.256Z,99.99
2017-03-26T08:19:12.474Z,99.99
2017-03-26T08:20:21.695Z,99.99
2017-03-26T08:21:30.593Z,99.99
2017-03-26T08:22:39.492Z,99.99
2017-03-26T08:23:48.706Z,99.99
2017-03-26T08:24:57.605Z,99.99
2017-03-26T08:26:06.200Z,99.99
2017-03-26T08:27:15.736Z,99.99
2017-03-26T08:28:24.635Z,99.99
2017-03-26T08:29:34.174Z,99.99
2017-03-26T08:30:43.071Z,99.99
2017-03-26T08:31:52.289Z,99.99
2017-03-26T08:33:01.188Z,99.99
2017-03-26T08:34:11.044Z,99.99
2017-03-26T08:35:20.263Z,99.99
2017-03-26T08:36:29.162Z,99.99
2017-03-26T08:37:38.708Z,99.99
2017-03-26T08:38:47.295Z,99.99
2017-03-26T08:39:56.520Z,99.99
2017-03-26T08:41:05.750Z,99.99
2017-03-26T08:42:14.649Z,99.99
2017-03-26T08:43:23.553Z,99.99
2017-03-26T08:44:32.771Z,99.99
2017-03-26T08:45:41.992Z,99.99
2017-03-26T08:46:51.217Z,99.99
2017-03-26T08:48:00.750Z,99.99
2017-03-26T08:49:09.969Z,99.99
2017-03-26T08:50:19.195Z,99.99
2017-03-26T08:51:28.093Z,99.99
2017-03-26T08:52:37.306Z,99.99
2017-03-26T08:53:46.857Z,99.99
2017-03-26T08:54:55.763Z,99.99
2017-03-26T08:56:04.353Z,99.99
2017-03-26T08:57:13.881Z,99.99
2017-03-26T08:58:23.101Z,99.99
2017-03-26T08:59:32.337Z,99.99
2017-03-26T09:00:41.236Z,99.99
2017-03-26T09:01:50.465Z,99.99
2017-03-26T09:02:59.685Z,99.99
2017-03-26T09:04:08.272Z,99.99
2017-03-26T09:05:17.812Z,99.99
2017-03-26T09:06:27.277Z,99.99
2017-03-26T09:07:36.168Z,99.99
2017-03-26T09:08:45.073Z,99.99
2017-03-26T09:09:54.304Z,99.99
2017-03-26T09:11:03.210Z,99.99
2017-03-26T09:12:12.428Z,99.99
2017-03-26T09:13:21.649Z,99.99
2017-03-26T09:14:30.246Z,99.99
2017-03-26T09:15:39.464Z,99.99
2017-03-26T09:16:48.302Z,99.99
2017-03-26T09:17:57.201Z,99.99
2017-03-26T09:19:05.804Z,99.99
2017-03-26T09:20:14.705Z,99.99
2017-03-26T09:21:23.928Z,99.99
2017-03-26T09:22:33.469Z,99.99
2017-03-26T09:23:42.064Z,99.99
2017-03-26T09:24:50.975Z,99.99
2017-03-26T09:25:59.883Z,99.99
2017-03-26T09:27:08.985Z,99.99
2017-03-26T09:28:17.879Z,99.99
2017-03-26T09:29:27.099Z,99.99
2017-03-26T09:30:36.318Z,99.99
2017-03-26T09:31:45.219Z,99.99
2017-03-26T09:32:54.119Z,99.99
2017-03-26T09:34:03.340Z,99.99
2017-03-26T09:35:12.239Z,99.99
2017-03-26T09:36:21.778Z,99.99
2017-03-26T09:37:31.006Z,99.99
2017-03-26T09:38:39.591Z,99.99
2017-03-26T09:39:48.172Z,99.99
2017-03-26T09:40:57.706Z,99.99
2017-03-26T09:42:07.240Z,99.99
2017-03-26T09:43:16.147Z,99.99
2017-03-26T09:44:25.055Z,99.99
2017-03-26T09:45:33.954Z,99.99
2017-03-26T09:46:43.806Z,99.99
2017-03-26T09:47:53.349Z,99.99
2017-03-26T09:49:02.573Z,99.99
2017-03-26T09:50:12.112Z,99.99
2017-03-26T09:51:21.332Z,99.99
2017-03-26T09:52:30.866Z,99.99
2017-03-26T09:53:40.410Z,99.99
2017-03-26T09:54:49.318Z,99.99
2017-03-26T09:55:58.544Z,99.99
2017-03-26T09:57:07.449Z,99.99
2017-03-26T09:58:16.342Z,99.99
2017-03-26T09:59:25.557Z,99.99
2017-03-26T10:00:34.460Z,99.99
2017-03-26T10:01:43.053Z,99.99
2017-03-26T10:02:52.911Z,99.99
2017-03-26T10:04:02.135Z,99.99
2017-03-26T10:05:11.039Z,99.99
2017-03-26T10:06:20.260Z,99.99
2017-03-26T10:07:28.837Z,99.99
2017-03-26T10:08:37.742Z,99.99
2017-03-26T10:09:47.282Z,99.99
2017-03-26T10:10:56.507Z,99.99
2017-03-26T10:12:05.089Z,99.99
2017-03-26T10:13:14.241Z,99.99
2017-03-26T10:14:23.472Z,99.99
2017-03-26T10:15:32.692Z,99.99
2017-03-26T10:16:41.644Z,99.99
2017-03-26T10:17:50.866Z,99.99
2017-03-26T10:18:59.769Z,99.99
2017-03-26T10:20:08.676Z,99.99
2017-03-26T10:21:17.891Z,99.99
2017-03-26T10:22:26.791Z,99.99
2017-03-26T10:23:36.013Z,99.99
2017-03-26T10:24:44.923Z,99.99
2017-03-26T10:25:53.507Z,99.99
2017-03-26T10:27:02.726Z,99.99
2017-03-26T10:28:11.671Z,99.99
2017-03-26T10:29:20.891Z,99.99
2017-03-26T10:30:30.122Z,99.99
2017-03-26T10:31:39.655Z,99.99
2017-03-26T10:32:48.560Z,99.99
2017-03-26T10:33:57.470Z,99.99
2017-03-26T10:35:06.941Z,99.99
2017-03-26T10:36:15.526Z,99.99
2017-03-26T10:37:24.747Z,99.99
2017-03-26T10:38:33.650Z,99.99
2017-03-26T10:39:42.236Z,99.99
2017-03-26T10:40:51.457Z,99.99
2017-03-26T10:42:00.677Z,99.99
2017-03-26T10:43:09.906Z,99.99
2017-03-26T10:44:18.494Z,99.99
2017-03-26T10:45:27.082Z,99.99
2017-03-26T10:46:36.295Z,99.99
2017-03-26T10:47:45.193Z,99.99
2017-03-26T10:48:53.772Z,99.99
2017-03-26T10:50:03.627Z,99.99
2017-03-26T10:51:13.160Z,99.99
2017-03-26T10:52:22.703Z,99.99
2017-03-26T10:53:31.919Z,99.99
2017-03-26T10:54:41.137Z,99.99
2017-03-26T10:55:50.075Z,99.99
2017-03-26T10:56:58.975Z,99.99
2017-03-26T10:58:08.514Z,99.99
2017-03-26T10:59:18.053Z,99.99
2017-03-26T11:00:26.967Z,99.99
2017-03-26T11:01:36.818Z,99.99
2017-03-26T11:02:46.036Z,99.99
2017-03-26T11:03:54.941Z,99.99
2017-03-26T11:05:03.992Z,99.99
2017-03-26T11:06:12.897Z,99.99
2017-03-26T11:07:21.798Z,99.99
2017-03-26T11:08:31.020Z,99.99
2017-03-26T11:09:40.559Z,99.99
2017-03-26T11:10:49.780Z,99.99
2017-03-26T11:11:58.998Z,99.99
2017-03-26T11:13:07.902Z,99.99
2017-03-26T11:14:17.447Z,99.99
2017-03-26T11:15:26.348Z,99.99
2017-03-26T11:16:35.568Z,99.99
2017-03-26T11:17:44.787Z,99.99
2017-03-26T11:18:54.009Z,99.99
2017-03-26T11:20:02.928Z,99.99
2017-03-26T11:21:11.827Z,99.99
2017-03-26T11:22:21.043Z,99.99
2017-03-26T11:23:30.258Z,99.99
2017-03-26T11:24:38.845Z,99.99
2017-03-26T11:25:47.748Z,99.99
2017-03-26T11:26:56.677Z,99.99
2017-03-26T11:28:05.906Z,99.99
2017-03-26T11:29:15.449Z,99.99
2017-03-26T11:30:24.678Z,99.99
2017-03-26T11:31:33.589Z,99.99
2017-03-26T11:32:42.818Z,99.99
2017-03-26T11:33:52.043Z,99.99
2017-03-26T11:35:01.264Z,99.99
2017-03-26T11:36:09.843Z,99.99
2017-03-26T11:37:18.750Z,99.99
2017-03-26T11:38:27.657Z,99.99
2017-03-26T11:39:36.878Z,99.99
2017-03-26T11:40:45.459Z,99.99
2017-03-26T11:41:54.051Z,99.99
2017-03-26T11:43:03.276Z,99.99
2017-03-26T11:44:11.860Z,99.99
2017-03-26T11:45:21.075Z,99.99
2017-03-26T11:46:30.292Z,99.99
2017-03-26T11:47:39.194Z,99.99
2017-03-26T11:48:48.414Z,99.99
2017-03-26T11:49:56.994Z,99.99
2017-03-26T11:51:05.900Z,99.99
2017-03-26T11:52:15.748Z,99.99
2017-03-26T11:53:24.964Z,99.99
2017-03-26T11:54:33.549Z,99.99
2017-03-26T11:55:42.456Z,99.99
2017-03-26T11:56:51.676Z,99.99
2017-03-26T11:58:01.534Z,99.99
2017-03-26T11:59:10.785Z,99.99
2017-03-26T12:00:19.690Z,99.99
2017-03-26T12:01:28.912Z,99.99
2017-03-26T12:02:37.814Z,99.99
2017-03-26T12:03:46.410Z,99.99
2017-03-26T12:04:55.010Z,99.99
2017-03-26T12:06:03.918Z,99.99
2017-03-26T12:07:13.243Z,99.99
2017-03-26T12:08:22.466Z,99.99
2017-03-26T12:09:31.687Z,99.99
2017-03-26T12:10:40.906Z,99.99
2017-03-26T12:11:50.458Z,99.99
2017-03-26T12:12:59.676Z,99.99
2017-03-26T12:14:08.896Z,99.99
2017-03-26T12:15:18.447Z,97.42
2017-03-26T12:16:27.355Z,98.75
2017-03-26T12:17:36.569Z,99.99
2017-03-26T12:18:45.479Z,97.71
2017-03-26T12:19:54.390Z,99.99
2017-03-26T12:21:02.980Z,99.99
2017-03-26T12:22:11.876Z,99.99
2017-03-26T12:23:20.781Z,99.99
2017-03-26T12:24:30.317Z,99.99
2017-03-26T12:25:39.218Z,99.61
2017-03-26T12:26:48.438Z,97.32
2017-03-26T12:27:57.025Z,96.66
2017-03-26T12:29:06.564Z,97.71
2017-03-26T12:30:15.785Z,99.9
2017-03-26T12:31:24.672Z,99.99
2017-03-26T12:32:33.889Z,94.46
2017-03-26T12:33:42.787Z,94.07
2017-03-26T12:34:51.695Z,93.22
2017-03-26T12:36:01.550Z,95.41
2017-03-26T12:37:10.773Z,99.99
2017-03-26T12:38:19.993Z,97.37
2017-03-26T12:39:29.542Z,92.12
2017-03-26T12:40:38.138Z,93.46
2017-03-26T12:41:47.681Z,91.16
2017-03-26T12:42:56.587Z,91.55
2017-03-26T12:44:05.488Z,92.31
2017-03-26T12:45:14.705Z,91.74
2017-03-26T12:46:23.283Z,91.74
2017-03-26T12:47:32.178Z,90.21
2017-03-26T12:48:41.400Z,91.16
2017-03-26T12:49:51.272Z,90.97
2017-03-26T12:51:00.546Z,88.87
2017-03-26T12:52:09.451Z,87.92
2017-03-26T12:53:18.986Z,89.25
2017-03-26T12:54:28.214Z,90.97
2017-03-26T12:55:37.432Z,92.88
2017-03-26T12:56:46.336Z,89.54
2017-03-26T12:57:55.557Z,92.12
2017-03-26T12:59:04.461Z,90.88
2017-03-26T13:00:13.365Z,89.35
2017-03-26T13:01:22.908Z,87.06
2017-03-26T13:02:32.130Z,86.68
2017-03-26T13:03:41.360Z,88.49
2017-03-26T13:04:51.237Z,87.44
2017-03-26T13:05:59.828Z,85.05
2017-03-26T13:07:08.735Z,83.43
2017-03-26T13:08:17.646Z,84.52
2017-03-26T13:09:26.241Z,85.48
2017-03-26T13:10:35.465Z,84.72
2017-03-26T13:11:44.364Z,85.58
2017-03-26T13:12:53.585Z,85.67
2017-03-26T13:14:02.633Z,85.1
2017-03-26T13:15:11.856Z,84.14
2017-03-26T13:16:20.756Z,87.2
2017-03-26T13:17:29.664Z,86.24
2017-03-26T13:18:39.034Z,87.1
2017-03-26T13:19:48.793Z,84.72
2017-03-26T13:20:58.153Z,86.82
2017-03-26T13:22:07.240Z,85.29
2017-03-26T13:23:16.460Z,86.34
2017-03-26T13:24:26.254Z,85.19
2017-03-26T13:25:35.817Z,85.19
2017-03-26T13:26:44.722Z,87.29
2017-03-26T13:27:53.945Z,85.1
2017-03-26T13:29:03.834Z,83.67
2017-03-26T13:30:12.833Z,83.95
2017-03-26T13:31:22.309Z,83.47
2017-03-26T13:32:32.086Z,83.38
2017-03-26T13:33:41.746Z,82.32
2017-03-26T13:34:51.141Z,81.56
2017-03-26T13:36:00.674Z,81.85
2017-03-26T13:37:09.893Z,84.14
2017-03-26T13:38:18.484Z,85.48
2017-03-26T13:39:27.437Z,85.48
2017-03-26T13:40:37.177Z,84.85
2017-03-26T13:41:47.050Z,82.9
2017-03-26T13:42:56.366Z,77.55
2017-03-26T13:44:05.502Z,76.82
2017-03-26T13:45:15.104Z,73.67
2017-03-26T13:46:24.770Z,73.96
2017-03-26T13:47:33.411Z,73.48
2017-03-26T13:48:42.684Z,73.96
2017-03-26T13:49:51.598Z,72.43
2017-03-26T13:51:01.194Z,73.48
2017-03-26T13:52:10.249Z,75.39
2017-03-26T13:53:19.181Z,74.44
2017-03-26T13:54:28.081Z,73.48
2017-03-26T13:55:37.572Z,72.05
2017-03-26T13:56:46.489Z,70.9
2017-03-26T13:57:55.421Z,71.13
2017-03-26T13:59:04.325Z,70.94
2017-03-26T14:00:14.293Z,70.27
2017-03-26T14:01:23.190Z,70.46
2017-03-26T14:02:32.405Z,71.38
2017-03-26T14:03:41.643Z,69.79
2017-03-26T14:04:50.548Z,66.35
2017-03-26T14:06:00.173Z,66.54
2017-03-26T14:07:09.400Z,66.63
2017-03-26T14:08:18.630Z,67.69
2017-03-26T14:09:27.879Z,67.97
2017-03-26T14:10:37.161Z,67.4
2017-03-26T14:11:46.495Z,67.4
2017-03-26T14:12:55.721Z,67.11
2017-03-26T14:14:04.945Z,67.49
2017-03-26T14:15:13.891Z,68.16
2017-03-26T14:16:22.472Z,66.63
2017-03-26T14:17:31.792Z,66.63
2017-03-26T14:18:40.759Z,67.4
2017-03-26T14:19:49.752Z,66.16
2017-03-26T14:20:58.380Z,66.92
2017-03-26T14:22:07.951Z,66.16
2017-03-26T14:23:17.173Z,66.16
2017-03-26T14:24:26.078Z,66.16
2017-03-26T14:25:35.307Z,65.77
2017-03-26T14:26:44.549Z,65.2
2017-03-26T14:27:53.487Z,64.82
2017-03-26T14:29:02.123Z,65.68
2017-03-26T14:30:11.396Z,65.58
2017-03-26T14:31:20.027Z,64.43
2017-03-26T14:32:28.656Z,65.3
2017-03-26T14:33:37.924Z,66.06
2017-03-26T14:34:47.206Z,66.16
2017-03-26T14:35:55.814Z,66.44
2017-03-26T14:37:04.716Z,66.06
2017-03-26T14:38:13.935Z,63.86
2017-03-26T14:39:23.155Z,63.1
2017-03-26T14:40:32.376Z,63
2017-03-26T14:41:41.329Z,63.1
2017-03-26T14:42:50.554Z,63.86
2017-03-26T14:43:59.780Z,64.34
2017-03-26T14:45:09.517Z,64.43
2017-03-26T14:46:18.508Z,62.81
2017-03-26T14:47:28.377Z,63.39
2017-03-26T14:48:37.287Z,63.29
2017-03-26T14:49:46.513Z,63.76
2017-03-26T14:50:56.066Z,62.81
2017-03-26T14:52:05.284Z,62.24